sensor_id;sensor_type;location;lat;lon;timestamp;P1;durP1;ratioP1;P2;durP2;ratioP2
49764;SDS011;35657;51.204;-4.130;2023-07-20T00:00:06;3.22;;;1.58;;
49764;SDS011;35657;51.204;-4.130;2023-07-20T00:02:32;4.03;;;1.90;;
49764;SDS011;35657;51.204;-4.130;2023-07-20T00:04:58;5.03;;;1.88;;
49764;SDS011;35657;51.204;-4.130;2023-07-20T00:07:23;2.58;;;1.70;;
49764;SDS011;35657;51.204;-4.130;2023-07-20T00:09:50;7.00;;;2.10;;
49764;SDS011;35657;51.204;-4.130;2023-07-20T00:12:16;4.78;;;1.65;;
49764;SDS011;35657;51.204;-4.130;2023-07-20T00:14:41;2.13;;;1.27;;
49764;SDS011;35657;51.204;-4.130;2023-07-20T00:17:07;2.42;;;1.48;;
49764;SDS011;35657;51.204;-4.130;2023-07-20T00:19:33;4.78;;;1.63;;
49764;SDS011;35657;51.204;-4.130;2023-07-20T00:22:00;3.35;;;1.40;;
49764;SDS011;35657;51.204;-4.130;2023-07-20T00:24:26;3.03;;;1.42;;
49764;SDS011;35657;51.204;-4.130;2023-07-20T00:26:52;3.80;;;1.70;;
49764;SDS011;35657;51.204;-4.130;2023-07-20T00:29:18;3.60;;;1.63;;
49764;SDS011;35657;51.204;-4.130;2023-07-20T00:31:43;3.58;;;1.55;;
49764;SDS011;35657;51.204;-4.130;2023-07-20T00:34:09;4.78;;;1.70;;
49764;SDS011;35657;51.204;-4.130;2023-07-20T00:36:35;2.15;;;1.65;;
49764;SDS011;35657;51.204;-4.130;2023-07-20T00:39:00;2.65;;;1.33;;
49764;SDS011;35657;51.204;-4.130;2023-07-20T00:41:26;2.20;;;1.55;;
49764;SDS011;35657;51.204;-4.130;2023-07-20T00:43:54;1.70;;;1.40;;
49764;SDS011;35657;51.204;-4.130;2023-07-20T00:46:22;2.97;;;1.65;;
49764;SDS011;35657;51.204;-4.130;2023-07-20T00:48:49;2.92;;;1.85;;
49764;SDS011;35657;51.204;-4.130;2023-07-20T00:51:16;4.10;;;1.70;;
49764;SDS011;35657;51.204;-4.130;2023-07-20T00:53:42;2.17;;;1.80;;
49764;SDS011;35657;51.204;-4.130;2023-07-20T00:56:08;4.05;;;1.50;;
49764;SDS011;35657;51.204;-4.130;2023-07-20T00:58:34;4.43;;;1.63;;
49764;SDS011;35657;51.204;-4.130;2023-07-20T01:01:00;5.60;;;1.63;;
49764;SDS011;35657;51.204;-4.130;2023-07-20T01:03:26;4.38;;;1.55;;
49764;SDS011;35657;51.204;-4.130;2023-07-20T01:05:59;2.10;;;1.33;;
49764;SDS011;35657;51.204;-4.130;2023-07-20T01:08:47;2.08;;;1.30;;
49764;SDS011;35657;51.204;-4.130;2023-07-20T01:14:04;3.40;;;1.70;;
49764;SDS011;35657;51.204;-4.130;2023-07-20T01:16:30;3.42;;;1.35;;
49764;SDS011;35657;51.204;-4.130;2023-07-20T01:18:56;2.60;;;1.45;;
49764;SDS011;35657;51.204;-4.130;2023-07-20T01:21:24;2.75;;;1.40;;
49764;SDS011;35657;51.204;-4.130;2023-07-20T01:24:38;3.15;;;1.38;;
49764;SDS011;35657;51.204;-4.130;2023-07-20T01:31:50;3.03;;;1.50;;
49764;SDS011;35657;51.204;-4.130;2023-07-20T01:34:18;3.47;;;1.60;;
49764;SDS011;35657;51.204;-4.130;2023-07-20T01:36:46;3.08;;;1.40;;
49764;SDS011;35657;51.204;-4.130;2023-07-20T01:39:17;2.25;;;1.20;;
49764;SDS011;35657;51.204;-4.130;2023-07-20T01:41:44;4.10;;;1.50;;
49764;SDS011;35657;51.204;-4.130;2023-07-20T01:44:11;2.97;;;1.33;;
49764;SDS011;35657;51.204;-4.130;2023-07-20T01:46:38;3.08;;;1.55;;
49764;SDS011;35657;51.204;-4.130;2023-07-20T01:49:03;4.65;;;1.95;;
49764;SDS011;35657;51.204;-4.130;2023-07-20T01:51:29;3.17;;;2.00;;
49764;SDS011;35657;51.204;-4.130;2023-07-20T01:53:55;2.30;;;1.30;;
49764;SDS011;35657;51.204;-4.130;2023-07-20T01:56:20;3.28;;;1.42;;
49764;SDS011;35657;51.204;-4.130;2023-07-20T01:58:46;6.10;;;1.73;;
49764;SDS011;35657;51.204;-4.130;2023-07-20T02:01:12;3.25;;;1.25;;
49764;SDS011;35657;51.204;-4.130;2023-07-20T02:03:37;2.53;;;1.40;;
49764;SDS011;35657;51.204;-4.130;2023-07-20T02:06:03;2.28;;;1.23;;
49764;SDS011;35657;51.204;-4.130;2023-07-20T02:08:29;3.10;;;1.30;;
49764;SDS011;35657;51.204;-4.130;2023-07-20T02:10:54;2.33;;;1.13;;
49764;SDS011;35657;51.204;-4.130;2023-07-20T02:13:20;3.53;;;1.02;;
49764;SDS011;35657;51.204;-4.130;2023-07-20T02:15:46;2.88;;;1.67;;
49764;SDS011;35657;51.204;-4.130;2023-07-20T02:18:15;2.08;;;1.35;;
49764;SDS011;35657;51.204;-4.130;2023-07-20T02:20:41;3.60;;;1.40;;
49764;SDS011;35657;51.204;-4.130;2023-07-20T02:23:07;2.08;;;1.83;;
49764;SDS011;35657;51.204;-4.130;2023-07-20T02:25:33;2.28;;;1.10;;
49764;SDS011;35657;51.204;-4.130;2023-07-20T02:27:59;1.83;;;1.20;;
49764;SDS011;35657;51.204;-4.130;2023-07-20T02:30:24;7.07;;;1.48;;
49764;SDS011;35657;51.204;-4.130;2023-07-20T02:32:50;5.95;;;1.27;;
49764;SDS011;35657;51.204;-4.130;2023-07-20T02:35:16;3.80;;;1.25;;
49764;SDS011;35657;51.204;-4.130;2023-07-20T02:37:42;2.33;;;1.52;;
49764;SDS011;35657;51.204;-4.130;2023-07-20T02:40:07;2.22;;;1.40;;
49764;SDS011;35657;51.204;-4.130;2023-07-20T02:42:34;3.13;;;1.30;;
49764;SDS011;35657;51.204;-4.130;2023-07-20T02:45:01;1.80;;;1.20;;
49764;SDS011;35657;51.204;-4.130;2023-07-20T02:47:30;3.13;;;1.77;;
49764;SDS011;35657;51.204;-4.130;2023-07-20T02:49:56;2.35;;;1.42;;
49764;SDS011;35657;51.204;-4.130;2023-07-20T02:52:22;4.07;;;1.40;;
49764;SDS011;35657;51.204;-4.130;2023-07-20T02:54:48;2.03;;;1.13;;
49764;SDS011;35657;51.204;-4.130;2023-07-20T02:57:14;2.10;;;1.15;;
49764;SDS011;35657;51.204;-4.130;2023-07-20T02:59:39;1.58;;;1.20;;
49764;SDS011;35657;51.204;-4.130;2023-07-20T03:02:05;1.83;;;1.40;;
49764;SDS011;35657;51.204;-4.130;2023-07-20T03:04:34;2.20;;;1.50;;
49764;SDS011;35657;51.204;-4.130;2023-07-20T03:07:02;3.22;;;1.33;;
49764;SDS011;35657;51.204;-4.130;2023-07-20T03:09:29;3.25;;;1.30;;
49764;SDS011;35657;51.204;-4.130;2023-07-20T03:11:55;4.22;;;1.40;;
49764;SDS011;35657;51.204;-4.130;2023-07-20T03:14:21;2.65;;;1.45;;
49764;SDS011;35657;51.204;-4.130;2023-07-20T03:16:47;2.13;;;1.60;;
49764;SDS011;35657;51.204;-4.130;2023-07-20T03:19:13;1.92;;;1.00;;
49764;SDS011;35657;51.204;-4.130;2023-07-20T03:21:39;3.75;;;1.30;;
49764;SDS011;35657;51.204;-4.130;2023-07-20T03:24:06;3.22;;;1.75;;
49764;SDS011;35657;51.204;-4.130;2023-07-20T03:26:33;4.05;;;1.20;;
49764;SDS011;35657;51.204;-4.130;2023-07-20T03:29:00;2.42;;;1.60;;
49764;SDS011;35657;51.204;-4.130;2023-07-20T03:31:25;1.65;;;1.13;;
49764;SDS011;35657;51.204;-4.130;2023-07-20T03:33:51;4.97;;;1.92;;
49764;SDS011;35657;51.204;-4.130;2023-07-20T03:36:17;2.60;;;1.58;;
49764;SDS011;35657;51.204;-4.130;2023-07-20T03:38:43;2.28;;;1.40;;
49764;SDS011;35657;51.204;-4.130;2023-07-20T03:41:09;2.92;;;1.45;;
49764;SDS011;35657;51.204;-4.130;2023-07-20T03:43:37;4.35;;;1.48;;
49764;SDS011;35657;51.204;-4.130;2023-07-20T03:46:02;3.42;;;1.85;;
49764;SDS011;35657;51.204;-4.130;2023-07-20T03:48:32;5.47;;;1.45;;
49764;SDS011;35657;51.204;-4.130;2023-07-20T03:50:58;3.78;;;1.75;;
49764;SDS011;35657;51.204;-4.130;2023-07-20T03:53:25;2.90;;;1.40;;
49764;SDS011;35657;51.204;-4.130;2023-07-20T03:55:51;5.40;;;1.50;;
49764;SDS011;35657;51.204;-4.130;2023-07-20T03:58:18;7.93;;;1.50;;
49764;SDS011;35657;51.204;-4.130;2023-07-20T04:00:48;6.45;;;1.48;;
49764;SDS011;35657;51.204;-4.130;2023-07-20T04:03:15;3.90;;;1.20;;
49764;SDS011;35657;51.204;-4.130;2023-07-20T04:05:43;2.47;;;1.30;;
49764;SDS011;35657;51.204;-4.130;2023-07-20T04:08:09;3.20;;;1.50;;
49764;SDS011;35657;51.204;-4.130;2023-07-20T04:10:36;5.15;;;1.30;;
49764;SDS011;35657;51.204;-4.130;2023-07-20T04:13:02;2.10;;;1.80;;
49764;SDS011;35657;51.204;-4.130;2023-07-20T04:15:28;2.00;;;1.30;;
49764;SDS011;35657;51.204;-4.130;2023-07-20T04:17:54;2.22;;;1.25;;
49764;SDS011;35657;51.204;-4.130;2023-07-20T04:20:21;2.75;;;1.42;;
49764;SDS011;35657;51.204;-4.130;2023-07-20T04:22:47;2.00;;;1.40;;
49764;SDS011;35657;51.204;-4.130;2023-07-20T04:25:13;2.25;;;1.52;;
49764;SDS011;35657;51.204;-4.130;2023-07-20T04:27:39;6.15;;;1.60;;
49764;SDS011;35657;51.204;-4.130;2023-07-20T04:30:06;7.90;;;1.55;;
49764;SDS011;35657;51.204;-4.130;2023-07-20T04:32:33;6.03;;;1.20;;
49764;SDS011;35657;51.204;-4.130;2023-07-20T04:34:59;4.53;;;1.42;;
49764;SDS011;35657;51.204;-4.130;2023-07-20T04:37:25;2.65;;;1.42;;
49764;SDS011;35657;51.204;-4.130;2023-07-20T04:39:50;2.90;;;1.70;;
49764;SDS011;35657;51.204;-4.130;2023-07-20T04:42:16;3.63;;;1.60;;
49764;SDS011;35657;51.204;-4.130;2023-07-20T04:44:41;4.20;;;1.75;;
49764;SDS011;35657;51.204;-4.130;2023-07-20T04:47:07;3.83;;;1.60;;
49764;SDS011;35657;51.204;-4.130;2023-07-20T04:49:36;3.38;;;1.60;;
49764;SDS011;35657;51.204;-4.130;2023-07-20T04:52:01;6.05;;;1.55;;
49764;SDS011;35657;51.204;-4.130;2023-07-20T04:54:27;4.13;;;1.55;;
49764;SDS011;35657;51.204;-4.130;2023-07-20T04:56:53;4.70;;;1.80;;
49764;SDS011;35657;51.204;-4.130;2023-07-20T04:59:19;2.95;;;1.70;;
49764;SDS011;35657;51.204;-4.130;2023-07-20T05:01:45;6.85;;;2.33;;
49764;SDS011;35657;51.204;-4.130;2023-07-20T05:04:11;6.82;;;2.03;;
49764;SDS011;35657;51.204;-4.130;2023-07-20T05:06:37;4.05;;;2.95;;
49764;SDS011;35657;51.204;-4.130;2023-07-20T05:09:04;7.50;;;1.88;;
49764;SDS011;35657;51.204;-4.130;2023-07-20T05:11:32;4.10;;;1.63;;
49764;SDS011;35657;51.204;-4.130;2023-07-20T05:13:59;8.15;;;2.65;;
49764;SDS011;35657;51.204;-4.130;2023-07-20T05:16:25;3.75;;;2.00;;
49764;SDS011;35657;51.204;-4.130;2023-07-20T05:18:50;6.10;;;2.22;;
49764;SDS011;35657;51.204;-4.130;2023-07-20T05:21:16;4.28;;;1.92;;
49764;SDS011;35657;51.204;-4.130;2023-07-20T05:23:42;4.15;;;2.08;;
49764;SDS011;35657;51.204;-4.130;2023-07-20T05:26:08;3.55;;;1.73;;
49764;SDS011;35657;51.204;-4.130;2023-07-20T05:28:34;4.60;;;2.17;;
49764;SDS011;35657;51.204;-4.130;2023-07-20T05:31:02;5.53;;;2.33;;
49764;SDS011;35657;51.204;-4.130;2023-07-20T05:33:28;2.35;;;1.77;;
49764;SDS011;35657;51.204;-4.130;2023-07-20T05:35:54;4.03;;;1.83;;
49764;SDS011;35657;51.204;-4.130;2023-07-20T05:38:19;2.65;;;1.75;;
49764;SDS011;35657;51.204;-4.130;2023-07-20T05:40:45;5.60;;;1.33;;
49764;SDS011;35657;51.204;-4.130;2023-07-20T05:43:12;6.43;;;2.90;;
49764;SDS011;35657;51.204;-4.130;2023-07-20T05:45:41;6.00;;;3.10;;
49764;SDS011;35657;51.204;-4.130;2023-07-20T05:48:08;6.22;;;3.10;;
49764;SDS011;35657;51.204;-4.130;2023-07-20T05:50:36;7.85;;;3.15;;
49764;SDS011;35657;51.204;-4.130;2023-07-20T05:53:08;14.20;;;5.35;;
49764;SDS011;35657;51.204;-4.130;2023-07-20T05:55:34;8.55;;;5.05;;
49764;SDS011;35657;51.204;-4.130;2023-07-20T05:58:00;7.10;;;3.85;;
49764;SDS011;35657;51.204;-4.130;2023-07-20T06:00:26;5.97;;;2.90;;
49764;SDS011;35657;51.204;-4.130;2023-07-20T06:02:52;4.50;;;2.97;;
49764;SDS011;35657;51.204;-4.130;2023-07-20T06:05:19;5.25;;;1.98;;
49764;SDS011;35657;51.204;-4.130;2023-07-20T06:07:46;1.55;;;1.25;;
49764;SDS011;35657;51.204;-4.130;2023-07-20T06:10:12;2.63;;;1.33;;
49764;SDS011;35657;51.204;-4.130;2023-07-20T06:12:38;2.72;;;1.80;;
49764;SDS011;35657;51.204;-4.130;2023-07-20T06:15:04;4.25;;;2.40;;
49764;SDS011;35657;51.204;-4.130;2023-07-20T06:17:31;8.27;;;2.38;;
49764;SDS011;35657;51.204;-4.130;2023-07-20T06:19:56;3.63;;;1.63;;
49764;SDS011;35657;51.204;-4.130;2023-07-20T06:22:22;3.53;;;2.53;;
49764;SDS011;35657;51.204;-4.130;2023-07-20T06:24:48;3.80;;;1.80;;
49764;SDS011;35657;51.204;-4.130;2023-07-20T06:27:14;5.15;;;2.00;;
49764;SDS011;35657;51.204;-4.130;2023-07-20T06:29:39;6.18;;;2.30;;
49764;SDS011;35657;51.204;-4.130;2023-07-20T06:32:05;4.32;;;2.00;;
49764;SDS011;35657;51.204;-4.130;2023-07-20T06:34:31;4.90;;;2.50;;
49764;SDS011;35657;51.204;-4.130;2023-07-20T06:37:02;3.92;;;2.00;;
49764;SDS011;35657;51.204;-4.130;2023-07-20T06:39:29;3.88;;;2.00;;
49764;SDS011;35657;51.204;-4.130;2023-07-20T06:41:54;4.88;;;2.08;;
49764;SDS011;35657;51.204;-4.130;2023-07-20T06:44:20;2.92;;;1.95;;
49764;SDS011;35657;51.204;-4.130;2023-07-20T06:46:46;2.65;;;1.58;;
49764;SDS011;35657;51.204;-4.130;2023-07-20T06:49:15;8.20;;;2.20;;
49764;SDS011;35657;51.204;-4.130;2023-07-20T06:51:52;2.70;;;1.92;;
49764;SDS011;35657;51.204;-4.130;2023-07-20T06:54:18;3.33;;;2.13;;
49764;SDS011;35657;51.204;-4.130;2023-07-20T06:56:43;4.18;;;1.90;;
49764;SDS011;35657;51.204;-4.130;2023-07-20T06:59:09;2.92;;;1.80;;
49764;SDS011;35657;51.204;-4.130;2023-07-20T07:01:35;2.65;;;1.85;;
49764;SDS011;35657;51.204;-4.130;2023-07-20T07:04:01;2.55;;;0.70;;
49764;SDS011;35657;51.204;-4.130;2023-07-20T07:06:26;4.32;;;2.03;;
49764;SDS011;35657;51.204;-4.130;2023-07-20T07:08:53;4.40;;;2.20;;
49764;SDS011;35657;51.204;-4.130;2023-07-20T07:11:18;3.00;;;1.65;;
49764;SDS011;35657;51.204;-4.130;2023-07-20T07:13:45;7.30;;;1.90;;
49764;SDS011;35657;51.204;-4.130;2023-07-20T07:16:12;3.90;;;1.42;;
49764;SDS011;35657;51.204;-4.130;2023-07-20T07:18:39;5.15;;;1.90;;
49764;SDS011;35657;51.204;-4.130;2023-07-20T07:21:05;5.10;;;1.70;;
49764;SDS011;35657;51.204;-4.130;2023-07-20T07:23:31;4.55;;;2.35;;
49764;SDS011;35657;51.204;-4.130;2023-07-20T07:25:56;4.57;;;2.20;;
49764;SDS011;35657;51.204;-4.130;2023-07-20T07:28:22;7.63;;;2.42;;
49764;SDS011;35657;51.204;-4.130;2023-07-20T07:30:48;4.10;;;2.10;;
49764;SDS011;35657;51.204;-4.130;2023-07-20T07:33:13;2.97;;;1.38;;
49764;SDS011;35657;51.204;-4.130;2023-07-20T07:35:39;1.75;;;1.17;;
49764;SDS011;35657;51.204;-4.130;2023-07-20T07:38:05;9.98;;;2.70;;
49764;SDS011;35657;51.204;-4.130;2023-07-20T07:40:31;2.60;;;1.17;;
49764;SDS011;35657;51.204;-4.130;2023-07-20T07:42:58;6.07;;;2.17;;
49764;SDS011;35657;51.204;-4.130;2023-07-20T07:45:23;3.55;;;1.92;;
49764;SDS011;35657;51.204;-4.130;2023-07-20T07:47:49;5.97;;;2.78;;
49764;SDS011;35657;51.204;-4.130;2023-07-20T07:50:15;6.20;;;2.50;;
49764;SDS011;35657;51.204;-4.130;2023-07-20T07:52:41;6.18;;;2.85;;
49764;SDS011;35657;51.204;-4.130;2023-07-20T07:55:06;4.50;;;3.05;;
49764;SDS011;35657;51.204;-4.130;2023-07-20T07:57:32;5.35;;;2.80;;
49764;SDS011;35657;51.204;-4.130;2023-07-20T07:59:58;8.68;;;4.28;;
49764;SDS011;35657;51.204;-4.130;2023-07-20T08:02:23;7.72;;;3.28;;
49764;SDS011;35657;51.204;-4.130;2023-07-20T08:04:49;6.45;;;3.13;;
49764;SDS011;35657;51.204;-4.130;2023-07-20T08:07:17;5.45;;;2.70;;
49764;SDS011;35657;51.204;-4.130;2023-07-20T08:09:43;5.32;;;2.70;;
49764;SDS011;35657;51.204;-4.130;2023-07-20T08:12:08;5.32;;;2.83;;
49764;SDS011;35657;51.204;-4.130;2023-07-20T08:14:34;5.68;;;1.98;;
49764;SDS011;35657;51.204;-4.130;2023-07-20T08:17:00;6.28;;;2.67;;
49764;SDS011;35657;51.204;-4.130;2023-07-20T08:19:25;6.18;;;2.85;;
49764;SDS011;35657;51.204;-4.130;2023-07-20T08:21:51;4.78;;;3.03;;
49764;SDS011;35657;51.204;-4.130;2023-07-20T08:24:17;5.75;;;3.25;;
49764;SDS011;35657;51.204;-4.130;2023-07-20T08:26:43;7.10;;;2.75;;
49764;SDS011;35657;51.204;-4.130;2023-07-20T08:29:08;5.13;;;3.03;;
49764;SDS011;35657;51.204;-4.130;2023-07-20T08:31:34;3.22;;;2.15;;
49764;SDS011;35657;51.204;-4.130;2023-07-20T08:34:00;6.03;;;2.80;;
49764;SDS011;35657;51.204;-4.130;2023-07-20T08:36:25;13.75;;;5.50;;
49764;SDS011;35657;51.204;-4.130;2023-07-20T08:38:52;6.80;;;3.17;;
49764;SDS011;35657;51.204;-4.130;2023-07-20T08:41:17;7.40;;;3.35;;
49764;SDS011;35657;51.204;-4.130;2023-07-20T08:43:44;8.40;;;3.38;;
49764;SDS011;35657;51.204;-4.130;2023-07-20T08:46:12;4.68;;;2.28;;
49764;SDS011;35657;51.204;-4.130;2023-07-20T08:48:40;5.90;;;2.70;;
49764;SDS011;35657;51.204;-4.130;2023-07-20T08:51:07;6.18;;;3.08;;
49764;SDS011;35657;51.204;-4.130;2023-07-20T08:53:32;4.47;;;3.13;;
49764;SDS011;35657;51.204;-4.130;2023-07-20T08:55:59;7.30;;;2.92;;
49764;SDS011;35657;51.204;-4.130;2023-07-20T08:58:26;3.92;;;2.70;;
49764;SDS011;35657;51.204;-4.130;2023-07-20T09:00:53;4.30;;;2.92;;
49764;SDS011;35657;51.204;-4.130;2023-07-20T09:03:20;4.75;;;2.80;;
49764;SDS011;35657;51.204;-4.130;2023-07-20T09:05:46;5.85;;;3.05;;
49764;SDS011;35657;51.204;-4.130;2023-07-20T09:08:12;5.38;;;2.55;;
49764;SDS011;35657;51.204;-4.130;2023-07-20T09:10:38;3.65;;;2.88;;
49764;SDS011;35657;51.204;-4.130;2023-07-20T09:13:03;7.03;;;2.72;;
49764;SDS011;35657;51.204;-4.130;2023-07-20T09:15:29;4.35;;;2.78;;
49764;SDS011;35657;51.204;-4.130;2023-07-20T09:17:55;4.45;;;3.10;;
49764;SDS011;35657;51.204;-4.130;2023-07-20T09:20:21;5.22;;;3.00;;
49764;SDS011;35657;51.204;-4.130;2023-07-20T09:22:47;6.90;;;2.72;;
49764;SDS011;35657;51.204;-4.130;2023-07-20T09:25:15;4.47;;;2.60;;
49764;SDS011;35657;51.204;-4.130;2023-07-20T09:27:43;3.95;;;2.72;;
49764;SDS011;35657;51.204;-4.130;2023-07-20T09:30:10;4.57;;;2.55;;
49764;SDS011;35657;51.204;-4.130;2023-07-20T09:32:40;4.13;;;2.58;;
49764;SDS011;35657;51.204;-4.130;2023-07-20T09:35:06;3.90;;;2.35;;
49764;SDS011;35657;51.204;-4.130;2023-07-20T09:37:37;5.75;;;2.60;;
49764;SDS011;35657;51.204;-4.130;2023-07-20T09:40:03;3.92;;;2.35;;
49764;SDS011;35657;51.204;-4.130;2023-07-20T09:42:33;8.40;;;2.95;;
49764;SDS011;35657;51.204;-4.130;2023-07-20T09:45:01;3.08;;;2.15;;
49764;SDS011;35657;51.204;-4.130;2023-07-20T09:47:27;4.53;;;2.78;;
49764;SDS011;35657;51.204;-4.130;2023-07-20T09:50:00;5.50;;;2.42;;
49764;SDS011;35657;51.204;-4.130;2023-07-20T09:52:26;5.40;;;3.05;;
49764;SDS011;35657;51.204;-4.130;2023-07-20T09:54:52;4.25;;;2.85;;
49764;SDS011;35657;51.204;-4.130;2023-07-20T09:57:19;6.07;;;2.83;;
49764;SDS011;35657;51.204;-4.130;2023-07-20T09:59:46;3.03;;;2.45;;
49764;SDS011;35657;51.204;-4.130;2023-07-20T10:02:23;5.90;;;2.97;;
49764;SDS011;35657;51.204;-4.130;2023-07-20T10:04:53;7.68;;;2.53;;
49764;SDS011;35657;51.204;-4.130;2023-07-20T10:07:19;5.55;;;2.90;;
49764;SDS011;35657;51.204;-4.130;2023-07-20T10:09:48;5.22;;;2.55;;
49764;SDS011;35657;51.204;-4.130;2023-07-20T10:12:17;3.80;;;2.15;;
49764;SDS011;35657;51.204;-4.130;2023-07-20T10:14:48;5.22;;;2.50;;
49764;SDS011;35657;51.204;-4.130;2023-07-20T10:18:29;5.10;;;2.75;;
49764;SDS011;35657;51.204;-4.130;2023-07-20T10:20:30;3.30;;;2.60;;
49764;SDS011;35657;51.204;-4.130;2023-07-20T10:22:58;9.93;;;3.50;;
49764;SDS011;35657;51.204;-4.130;2023-07-20T10:25:25;5.28;;;3.35;;
49764;SDS011;35657;51.204;-4.130;2023-07-20T10:27:53;5.38;;;2.78;;
49764;SDS011;35657;51.204;-4.130;2023-07-20T10:30:19;7.03;;;3.00;;
49764;SDS011;35657;51.204;-4.130;2023-07-20T10:32:45;6.72;;;3.42;;
49764;SDS011;35657;51.204;-4.130;2023-07-20T10:35:13;6.03;;;3.13;;
49764;SDS011;35657;51.204;-4.130;2023-07-20T10:37:49;5.65;;;3.10;;
49764;SDS011;35657;51.204;-4.130;2023-07-20T10:40:34;5.40;;;2.88;;
49764;SDS011;35657;51.204;-4.130;2023-07-20T10:43:04;6.97;;;3.17;;
49764;SDS011;35657;51.204;-4.130;2023-07-20T10:48:03;5.75;;;2.53;;
49764;SDS011;35657;51.204;-4.130;2023-07-20T10:50:30;5.97;;;2.53;;
49764;SDS011;35657;51.204;-4.130;2023-07-20T10:53:04;10.88;;;2.53;;
49764;SDS011;35657;51.204;-4.130;2023-07-20T10:55:37;3.42;;;2.38;;
49764;SDS011;35657;51.204;-4.130;2023-07-20T10:58:07;4.72;;;2.67;;
49764;SDS011;35657;51.204;-4.130;2023-07-20T11:00:37;4.63;;;2.42;;
49764;SDS011;35657;51.204;-4.130;2023-07-20T11:03:09;4.95;;;2.28;;
49764;SDS011;35657;51.204;-4.130;2023-07-20T11:05:35;3.60;;;2.22;;
49764;SDS011;35657;51.204;-4.130;2023-07-20T11:08:07;4.22;;;2.40;;
49764;SDS011;35657;51.204;-4.130;2023-07-20T11:10:35;4.95;;;2.80;;
49764;SDS011;35657;51.204;-4.130;2023-07-20T11:16:09;5.68;;;2.60;;
49764;SDS011;35657;51.204;-4.130;2023-07-20T11:18:34;5.88;;;2.58;;
49764;SDS011;35657;51.204;-4.130;2023-07-20T11:21:06;3.90;;;2.13;;
49764;SDS011;35657;51.204;-4.130;2023-07-20T11:23:34;3.03;;;2.03;;
49764;SDS011;35657;51.204;-4.130;2023-07-20T11:26:03;5.72;;;2.03;;
49764;SDS011;35657;51.204;-4.130;2023-07-20T11:28:29;6.25;;;2.33;;
49764;SDS011;35657;51.204;-4.130;2023-07-20T11:30:55;3.95;;;1.98;;
49764;SDS011;35657;51.204;-4.130;2023-07-20T11:33:21;3.42;;;2.28;;
49764;SDS011;35657;51.204;-4.130;2023-07-20T11:35:48;5.35;;;2.30;;
49764;SDS011;35657;51.204;-4.130;2023-07-20T11:38:16;3.53;;;2.15;;
49764;SDS011;35657;51.204;-4.130;2023-07-20T11:40:44;3.53;;;2.13;;
49764;SDS011;35657;51.204;-4.130;2023-07-20T11:43:12;3.15;;;1.83;;
49764;SDS011;35657;51.204;-4.130;2023-07-20T11:45:38;2.85;;;2.10;;
49764;SDS011;35657;51.204;-4.130;2023-07-20T11:48:05;3.90;;;2.03;;
49764;SDS011;35657;51.204;-4.130;2023-07-20T11:50:30;3.97;;;1.90;;
49764;SDS011;35657;51.204;-4.130;2023-07-20T11:52:57;3.97;;;2.20;;
49764;SDS011;35657;51.204;-4.130;2023-07-20T11:55:23;3.33;;;2.03;;
49764;SDS011;35657;51.204;-4.130;2023-07-20T11:58:04;8.15;;;2.40;;
49764;SDS011;35657;51.204;-4.130;2023-07-20T12:00:31;4.20;;;1.90;;
49764;SDS011;35657;51.204;-4.130;2023-07-20T12:02:58;3.30;;;2.08;;
49764;SDS011;35657;51.204;-4.130;2023-07-20T12:05:24;3.63;;;2.08;;
49764;SDS011;35657;51.204;-4.130;2023-07-20T12:07:51;4.63;;;1.90;;
49764;SDS011;35657;51.204;-4.130;2023-07-20T12:10:22;3.67;;;2.17;;
49764;SDS011;35657;51.204;-4.130;2023-07-20T12:12:51;6.57;;;1.95;;
49764;SDS011;35657;51.204;-4.130;2023-07-20T12:15:19;3.50;;;1.90;;
49764;SDS011;35657;51.204;-4.130;2023-07-20T12:17:49;7.57;;;2.60;;
49764;SDS011;35657;51.204;-4.130;2023-07-20T12:20:35;3.00;;;2.00;;
49764;SDS011;35657;51.204;-4.130;2023-07-20T12:25:40;5.10;;;2.03;;
49764;SDS011;35657;51.204;-4.130;2023-07-20T12:28:14;6.38;;;2.40;;
49764;SDS011;35657;51.204;-4.130;2023-07-20T12:30:43;5.65;;;2.47;;
49764;SDS011;35657;51.204;-4.130;2023-07-20T12:33:09;2.72;;;1.55;;
49764;SDS011;35657;51.204;-4.130;2023-07-20T12:35:36;4.78;;;1.80;;
49764;SDS011;35657;51.204;-4.130;2023-07-20T12:38:02;2.80;;;1.95;;
49764;SDS011;35657;51.204;-4.130;2023-07-20T12:40:28;3.85;;;1.95;;
49764;SDS011;35657;51.204;-4.130;2023-07-20T12:42:54;2.67;;;1.73;;
49764;SDS011;35657;51.204;-4.130;2023-07-20T12:45:20;2.33;;;1.45;;
49764;SDS011;35657;51.204;-4.130;2023-07-20T12:47:47;5.05;;;2.35;;
49764;SDS011;35657;51.204;-4.130;2023-07-20T12:50:13;1.95;;;1.75;;
49764;SDS011;35657;51.204;-4.130;2023-07-20T12:52:39;2.97;;;2.03;;
49764;SDS011;35657;51.204;-4.130;2023-07-20T12:55:06;2.78;;;1.70;;
49764;SDS011;35657;51.204;-4.130;2023-07-20T12:57:36;5.78;;;2.38;;
49764;SDS011;35657;51.204;-4.130;2023-07-20T13:00:03;1.85;;;1.35;;
49764;SDS011;35657;51.204;-4.130;2023-07-20T13:02:30;2.47;;;1.90;;
49764;SDS011;35657;51.204;-4.130;2023-07-20T13:04:57;3.13;;;2.15;;
49764;SDS011;35657;51.204;-4.130;2023-07-20T13:07:36;1.92;;;1.60;;
49764;SDS011;35657;51.204;-4.130;2023-07-20T13:10:03;3.70;;;1.83;;
49764;SDS011;35657;51.204;-4.130;2023-07-20T13:12:31;4.15;;;1.95;;
49764;SDS011;35657;51.204;-4.130;2023-07-20T13:14:58;2.72;;;2.10;;
49764;SDS011;35657;51.204;-4.130;2023-07-20T13:17:27;3.08;;;2.10;;
49764;SDS011;35657;51.204;-4.130;2023-07-20T13:19:55;3.10;;;1.83;;
49764;SDS011;35657;51.204;-4.130;2023-07-20T13:22:20;4.25;;;2.00;;
49764;SDS011;35657;51.204;-4.130;2023-07-20T13:24:46;3.72;;;2.08;;
49764;SDS011;35657;51.204;-4.130;2023-07-20T13:27:15;3.33;;;2.50;;
49764;SDS011;35657;51.204;-4.130;2023-07-20T13:29:42;3.05;;;2.20;;
49764;SDS011;35657;51.204;-4.130;2023-07-20T13:32:08;2.85;;;2.13;;
49764;SDS011;35657;51.204;-4.130;2023-07-20T13:34:34;3.65;;;2.00;;
49764;SDS011;35657;51.204;-4.130;2023-07-20T13:37:00;4.15;;;2.97;;
49764;SDS011;35657;51.204;-4.130;2023-07-20T13:39:27;4.35;;;2.75;;
49764;SDS011;35657;51.204;-4.130;2023-07-20T13:41:53;3.80;;;2.13;;
49764;SDS011;35657;51.204;-4.130;2023-07-20T13:44:19;4.03;;;2.17;;
49764;SDS011;35657;51.204;-4.130;2023-07-20T13:46:46;4.93;;;2.50;;
49764;SDS011;35657;51.204;-4.130;2023-07-20T13:49:12;5.35;;;2.47;;
49764;SDS011;35657;51.204;-4.130;2023-07-20T13:51:39;4.53;;;2.15;;
49764;SDS011;35657;51.204;-4.130;2023-07-20T13:54:05;3.58;;;1.90;;
49764;SDS011;35657;51.204;-4.130;2023-07-20T13:56:31;2.78;;;1.92;;
49764;SDS011;35657;51.204;-4.130;2023-07-20T13:58:57;3.75;;;2.42;;
49764;SDS011;35657;51.204;-4.130;2023-07-20T14:01:22;5.43;;;2.60;;
49764;SDS011;35657;51.204;-4.130;2023-07-20T14:03:50;6.38;;;2.65;;
49764;SDS011;35657;51.204;-4.130;2023-07-20T14:06:16;2.97;;;2.38;;
49764;SDS011;35657;51.204;-4.130;2023-07-20T14:08:42;3.95;;;2.05;;
49764;SDS011;35657;51.204;-4.130;2023-07-20T14:11:11;6.10;;;2.22;;
49764;SDS011;35657;51.204;-4.130;2023-07-20T14:13:37;3.58;;;2.25;;
49764;SDS011;35657;51.204;-4.130;2023-07-20T14:16:04;4.68;;;2.22;;
49764;SDS011;35657;51.204;-4.130;2023-07-20T14:18:30;3.65;;;2.45;;
49764;SDS011;35657;51.204;-4.130;2023-07-20T14:20:55;3.47;;;2.20;;
49764;SDS011;35657;51.204;-4.130;2023-07-20T14:23:21;6.05;;;2.70;;
49764;SDS011;35657;51.204;-4.130;2023-07-20T14:25:47;5.70;;;2.55;;
49764;SDS011;35657;51.204;-4.130;2023-07-20T14:28:13;3.97;;;2.30;;
49764;SDS011;35657;51.204;-4.130;2023-07-20T14:30:39;4.03;;;1.90;;
49764;SDS011;35657;51.204;-4.130;2023-07-20T14:33:06;5.03;;;2.35;;
49764;SDS011;35657;51.204;-4.130;2023-07-20T14:35:32;3.45;;;2.42;;
49764;SDS011;35657;51.204;-4.130;2023-07-20T14:37:59;3.58;;;2.10;;
49764;SDS011;35657;51.204;-4.130;2023-07-20T14:40:26;2.95;;;1.98;;
49764;SDS011;35657;51.204;-4.130;2023-07-20T14:42:52;7.55;;;3.42;;
49764;SDS011;35657;51.204;-4.130;2023-07-20T14:45:17;5.82;;;2.55;;
49764;SDS011;35657;51.204;-4.130;2023-07-20T14:47:43;2.80;;;1.80;;